Time;durP1;ratioP1;P1;durP2;ratioP2;P2;SDS_P1;SDS_P2;PMS_P1;PMS_P2;Temp;Humidity;BMP_temperature;BMP_pressure;BME280_temperature;BME280_humidity;BME280_pressure;Samples;Min_cycle;Max_cycle;Signal;HPM_P1;HPM_P2
2024/02/05 00:01:22;;;;;;;2.75;1.90;;;5.90;99.90;;;;;;6080431;23;20026;-76
2024/02/05 00:04:09;;;;;;;4.13;2.17;;;5.80;99.90;;;;;;6069061;23;20030;-75
2024/02/05 00:06:58;;;;;;;3.90;1.92;;;5.80;99.90;;;;;;6059314;23;20030;-78
2024/02/05 00:09:47;;;;;;;3.47;2.55;;;5.80;99.90;;;;;;6057053;23;20508;-79
2024/02/05 00:12:36;;;;;;;5.03;2.13;;;5.80;99.90;;;;;;6067188;23;20142;-79
2024/02/05 00:15:24;;;;;;;2.55;1.75;;;5.70;99.90;;;;;;6069026;23;20041;-79
2024/02/05 00:18:11;;;;;;;2.38;2.08;;;5.70;99.90;;;;;;6057389;23;20027;-79
2024/02/05 00:20:59;;;;;;;2.65;2.00;;;5.70;99.90;;;;;;6059772;23;20823;-78
2024/02/05 00:23:48;;;;;;;2.42;1.73;;;5.60;99.90;;;;;;6055943;23;20129;-78
2024/02/05 00:26:36;;;;;;;3.30;2.42;;;5.60;99.90;;;;;;6039446;23;20040;-79
2024/02/05 00:29:23;;;;;;;1.83;1.63;;;5.50;99.90;;;;;;6036286;23;20043;-79
2024/02/05 00:32:12;;;;;;;2.13;1.95;;;5.40;99.90;;;;;;6057224;23;20182;-78
2024/02/05 00:35:00;;;;;;;3.05;1.85;;;5.30;99.90;;;;;;6057271;23;20031;-78
2024/02/05 00:37:48;;;;;;;2.50;1.90;;;5.30;99.90;;;;;;6053945;23;20023;-78
2024/02/05 00:40:35;;;;;;;2.40;1.85;;;5.30;99.90;;;;;;6056252;23;20358;-78
2024/02/05 00:43:24;;;;;;;2.33;2.03;;;5.20;99.90;;;;;;6055511;23;20558;-75
2024/02/05 00:46:26;;;;;;;2.00;1.80;;;5.20;99.90;;;;;;6033299;23;20034;-79
2024/02/05 00:49:14;;;;;;;1.60;1.50;;;5.20;99.90;;;;;;6055648;23;20031;-79
2024/02/05 00:52:03;;;;;;;2.08;1.80;;;5.20;99.90;;;;;;6056520;23;20027;-78
2024/02/05 00:54:50;;;;;;;2.55;2.10;;;5.10;99.90;;;;;;6055477;23;20054;-78
2024/02/05 00:57:39;;;;;;;4.03;2.50;;;5.10;99.90;;;;;;6065359;23;20026;-78
2024/02/05 01:00:27;;;;;;;3.05;2.30;;;5.20;99.90;;;;;;6067682;23;20031;-78
2024/02/05 01:03:15;;;;;;;2.53;2.10;;;5.20;99.90;;;;;;6033870;23;20552;-77
2024/02/05 01:06:03;;;;;;;2.22;2.00;;;5.30;99.90;;;;;;6060882;23;20367;-78
2024/02/05 01:08:51;;;;;;;1.92;1.83;;;5.40;99.90;;;;;;6052265;23;20031;-78
2024/02/05 01:11:38;;;;;;;2.92;1.73;;;5.50;99.90;;;;;;6053838;23;20026;-78
2024/02/05 01:14:30;;;;;;;2.13;1.70;;;5.60;99.90;;;;;;6052688;23;20868;-79
2024/02/05 01:17:19;;;;;;;1.75;1.55;;;5.60;99.90;;;;;;6054328;23;20034;-76
2024/02/05 01:20:10;;;;;;;3.38;2.10;;;5.60;99.90;;;;;;6053719;23;20058;-79
2024/02/05 01:23:00;;;;;;;2.50;2.23;;;5.60;99.90;;;;;;6054627;23;20031;-78
2024/02/05 01:25:47;;;;;;;2.88;1.80;;;5.70;99.90;;;;;;6054567;23;20031;-78
2024/02/05 01:28:35;;;;;;;2.28;1.60;;;5.60;99.90;;;;;;6055575;23;20066;-78
2024/02/05 01:31:22;;;;;;;2.33;1.80;;;5.60;99.90;;;;;;6053786;23;20074;-78
2024/02/05 01:34:10;;;;;;;2.22;2.00;;;5.60;99.90;;;;;;6059729;23;20023;-78
2024/02/05 01:37:02;;;;;;;2.70;2.35;;;5.60;99.90;;;;;;6053212;23;20077;-79
2024/02/05 01:39:50;;;;;;;2.33;2.00;;;5.60;99.90;;;;;;6053467;23;20101;-79
2024/02/05 01:42:41;;;;;;;2.08;1.90;;;5.60;99.90;;;;;;6055396;23;20272;-78
2024/02/05 01:45:28;;;;;;;2.33;2.05;;;5.50;99.90;;;;;;6067335;23;20231;-78
2024/02/05 01:48:21;;;;;;;2.95;2.03;;;5.60;99.90;;;;;;6063898;23;20041;-78
2024/02/05 01:51:18;;;;;;;2.30;2.10;;;5.60;99.90;;;;;;6058573;23;20050;-79
2024/02/05 01:54:05;;;;;;;2.17;1.98;;;5.50;99.90;;;;;;6033743;23;20029;-78
2024/02/05 01:56:54;;;;;;;3.15;2.22;;;5.50;99.90;;;;;;6035323;23;20026;-79
2024/02/05 01:59:42;;;;;;;2.38;2.05;;;5.50;99.90;;;;;;6043713;23;20029;-77
2024/02/05 02:02:30;;;;;;;3.10;2.13;;;5.50;99.90;;;;;;6056625;23;20026;-76
2024/02/05 02:05:19;;;;;;;3.00;2.00;;;5.50;99.90;;;;;;6055914;23;20031;-77
2024/02/05 02:08:10;;;;;;;4.20;2.05;;;5.50;99.90;;;;;;6054026;23;20105;-78
2024/02/05 02:10:58;;;;;;;2.63;1.77;;;5.60;99.90;;;;;;6055301;23;20035;-77
2024/02/05 02:13:46;;;;;;;2.30;1.75;;;5.70;99.90;;;;;;6054712;23;20034;-78
2024/02/05 02:16:35;;;;;;;1.83;1.70;;;5.80;99.90;;;;;;6056605;23;20078;-78
2024/02/05 02:19:43;;;;;;;2.95;1.83;;;6.00;99.90;;;;;;6054208;23;20106;-79
2024/02/05 02:22:59;;;;;;;2.03;1.63;;;6.00;99.90;;;;;;6035168;23;20037;-78
2024/02/05 02:25:50;;;;;;;2.45;1.75;;;6.10;99.90;;;;;;6057413;23;20164;-78
2024/02/05 02:28:38;;;;;;;2.30;1.90;;;6.10;99.90;;;;;;6076195;23;20066;-78
2024/02/05 02:31:32;;;;;;;2.55;1.73;;;6.10;99.90;;;;;;6043440;23;20041;-78
2024/02/05 02:34:29;;;;;;;2.10;1.65;;;6.10;99.90;;;;;;6013819;23;20053;-79
2024/02/05 02:37:21;;;;;;;3.38;2.00;;;6.10;99.90;;;;;;6034658;23;20385;-78
2024/02/05 02:40:13;;;;;;;2.95;1.90;;;6.10;99.90;;;;;;6054843;23;20172;-76
2024/02/05 02:43:05;;;;;;;;;;;6.10;99.90;;;;;;6040583;23;20027;-75
2024/02/05 02:45:54;;;;;;;2.63;2.22;;;6.10;99.90;;;;;;6066808;23;19921;-78
2024/02/05 02:48:42;;;;;;;4.45;1.52;;;6.10;99.90;;;;;;6049668;23;20318;-77
2024/02/05 02:51:30;;;;;;;1.83;1.60;;;6.10;99.90;;;;;;6060089;23;20469;-77
2024/02/05 02:54:21;;;;;;;2.63;1.63;;;6.10;99.90;;;;;;6066763;23;20026;-78
2024/02/05 02:57:14;;;;;;;3.50;1.70;;;6.10;99.90;;;;;;6067793;23;20141;-77
2024/02/05 03:00:05;;;;;;;2.53;1.67;;;6.10;99.90;;;;;;6065675;23;20034;-76
2024/02/05 03:02:53;;;;;;;4.47;1.75;;;6.10;99.90;;;;;;6052063;23;20031;-78
2024/02/05 03:05:44;;;;;;;4.25;1.80;;;6.10;99.90;;;;;;6052747;23;20671;-77
2024/02/05 03:08:32;;;;;;;3.58;1.60;;;6.10;99.90;;;;;;6035488;23;20048;-77
2024/02/05 03:11:20;;;;;;;4.10;2.03;;;6.10;99.90;;;;;;6055700;23;20434;-78
2024/02/05 03:14:07;;;;;;;2.40;1.90;;;6.00;99.90;;;;;;6055178;23;20118;-78
2024/02/05 03:16:56;;;;;;;3.17;2.13;;;6.00;99.90;;;;;;6053456;23;20347;-79
2024/02/05 03:19:45;;;;;;;3.95;2.03;;;6.00;99.90;;;;;;6055024;23;20030;-77
2024/02/05 03:22:33;;;;;;;2.97;2.08;;;5.90;99.90;;;;;;6056876;23;20126;-77
2024/02/05 03:25:21;;;;;;;2.42;1.98;;;5.90;99.90;;;;;;6053142;23;20124;-77
2024/02/05 03:28:08;;;;;;;4.70;2.28;;;5.80;99.90;;;;;;6079342;23;20061;-75
2024/02/05 03:30:56;;;;;;;2.63;2.10;;;5.80;99.90;;;;;;6073715;23;20102;-76
2024/02/05 03:33:44;;;;;;;6.20;2.05;;;5.80;99.90;;;;;;6056576;23;20426;-78
2024/02/05 03:36:31;;;;;;;3.30;2.00;;;5.80;99.90;;;;;;6039988;23;20031;-75
2024/02/05 03:39:19;;;;;;;4.72;2.45;;;5.80;99.90;;;;;;6043793;23;20107;-80
2024/02/05 03:42:07;;;;;;;5.13;2.35;;;5.80;99.90;;;;;;6057509;23;20023;-77
2024/02/05 03:44:54;;;;;;;4.05;1.90;;;5.80;99.90;;;;;;6054831;23;20102;-77
2024/02/05 03:47:42;;;;;;;4.25;1.88;;;5.80;99.90;;;;;;6054679;23;20026;-77
2024/02/05 03:50:30;;;;;;;6.63;2.10;;;5.80;99.90;;;;;;6055832;23;20035;-76
2024/02/05 03:53:19;;;;;;;6.78;2.55;;;5.80;99.90;;;;;;6071026;23;20078;-76
2024/02/05 03:56:06;;;;;;;4.40;2.13;;;5.70;99.90;;;;;;6057028;23;20038;-75
2024/02/05 03:58:54;;;;;;;3.03;2.10;;;5.70;99.90;;;;;;6055585;23;20019;-77
2024/02/05 04:01:42;;;;;;;5.40;2.20;;;5.70;99.90;;;;;;6073729;23;20446;-76
2024/02/05 04:04:30;;;;;;;2.45;1.88;;;5.70;99.90;;;;;;6052212;23;20055;-76
2024/02/05 04:07:17;;;;;;;3.22;1.85;;;5.70;99.90;;;;;;6031314;23;20349;-79
2024/02/05 04:10:06;;;;;;;3.50;2.10;;;5.70;99.90;;;;;;6036700;23;20049;-76
2024/02/05 04:12:56;;;;;;;4.28;2.35;;;5.70;99.90;;;;;;6043367;23;20145;-79
2024/02/05 04:15:44;;;;;;;4.55;2.20;;;5.60;99.90;;;;;;6051981;23;20661;-78
2024/02/05 04:18:36;;;;;;;4.30;2.60;;;5.70;99.90;;;;;;6057889;23;20520;-76
2024/02/05 04:21:24;;;;;;;5.35;2.05;;;5.70;99.90;;;;;;6044026;23;20048;-77
2024/02/05 04:24:11;;;;;;;2.55;1.70;;;5.70;99.90;;;;;;6061598;23;20027;-78
2024/02/05 04:26:58;;;;;;;1.70;1.60;;;5.70;99.90;;;;;;6030461;23;20657;-77
2024/02/05 04:29:46;;;;;;;2.35;1.33;;;5.80;99.90;;;;;;6052882;23;20041;-78
2024/02/05 04:32:33;;;;;;;5.25;1.80;;;5.70;99.90;;;;;;6054335;23;20086;-79
2024/02/05 04:35:21;;;;;;;1.60;1.50;;;5.80;99.90;;;;;;6062005;23;20027;-77
2024/02/05 04:38:09;;;;;;;1.77;1.20;;;5.80;99.90;;;;;;6065198;23;20030;-77
2024/02/05 04:40:57;;;;;;;2.90;1.33;;;5.80;99.90;;;;;;6043445;23;20031;-80
2024/02/05 04:43:45;;;;;;;2.88;1.33;;;5.80;99.90;;;;;;6044164;23;20034;-76
2024/02/05 04:46:33;;;;;;;3.72;2.00;;;5.80;99.90;;;;;;6059797;23;20046;-76
2024/02/05 04:49:20;;;;;;;2.67;1.52;;;5.80;99.90;;;;;;6053834;23;20466;-78
2024/02/05 04:52:09;;;;;;;1.33;1.20;;;5.80;99.90;;;;;;6053205;23;20027;-77
2024/02/05 04:54:56;;;;;;;1.27;1.17;;;5.80;99.90;;;;;;6064721;23;20050;-78
2024/02/05 04:57:48;;;;;;;1.00;1.00;;;5.80;99.90;;;;;;6065486;23;20379;-79
2024/02/05 05:00:38;;;;;;;4.28;1.10;;;5.80;99.90;;;;;;6030725;23;20023;-77
2024/02/05 05:03:27;;;;;;;1.38;1.10;;;5.80;99.90;;;;;;6051146;23;20058;-76
2024/02/05 05:06:14;;;;;;;1.10;1.10;;;5.80;99.90;;;;;;6081655;23;20046;-77
2024/02/05 05:09:02;;;;;;;1.38;1.20;;;5.80;99.90;;;;;;6080785;23;20053;-76
2024/02/05 05:11:51;;;;;;;1.27;1.17;;;5.80;99.90;;;;;;6058710;23;20031;-79
2024/02/05 05:14:38;;;;;;;1.77;1.00;;;5.80;99.90;;;;;;6080527;23;20034;-77
2024/02/05 05:17:26;;;;;;;1.50;1.23;;;5.80;99.90;;;;;;6052224;23;20031;-79
2024/02/05 05:20:13;;;;;;;1.73;1.52;;;5.80;99.90;;;;;;6059778;23;20023;-76
2024/02/05 05:23:01;;;;;;;2.90;1.17;;;5.80;99.90;;;;;;6053688;23;20082;-77
2024/02/05 05:25:49;;;;;;;2.35;1.55;;;5.80;99.90;;;;;;6053667;23;21773;-77
2024/02/05 05:28:40;;;;;;;1.55;1.42;;;5.80;99.90;;;;;;6055386;23;20443;-77
2024/02/05 05:31:27;;;;;;;2.92;1.40;;;5.80;99.90;;;;;;6055431;23;20030;-78
2024/02/05 05:34:15;;;;;;;1.45;1.33;;;5.80;99.90;;;;;;6056302;23;20434;-78
2024/02/05 05:37:03;;;;;;;1.48;1.38;;;5.80;99.90;;;;;;6062934;23;20451;-78
2024/02/05 05:39:51;;;;;;;1.83;1.25;;;5.80;99.90;;;;;;6054987;23;20027;-78
2024/02/05 05:42:39;;;;;;;1.50;1.38;;;5.80;99.90;;;;;;6015928;23;20038;-77
2024/02/05 05:45:29;;;;;;;3.13;1.30;;;5.80;99.90;;;;;;6064020;23;20109;-77
2024/02/05 05:48:17;;;;;;;3.05;1.50;;;5.80;99.90;;;;;;6045181;23;20186;-79
2024/02/05 05:51:05;;;;;;;1.92;1.40;;;5.70;99.90;;;;;;6037533;23;20071;-77
2024/02/05 05:53:52;;;;;;;1.30;1.20;;;5.70;99.90;;;;;;6051880;23;20041;-77
2024/02/05 05:56:40;;;;;;;2.63;1.33;;;5.70;99.90;;;;;;6031643;23;20081;-77
2024/02/05 05:59:27;;;;;;;2.30;1.48;;;5.70;99.90;;;;;;6052859;23;20118;-77
2024/02/05 06:02:16;;;;;;;2.53;1.80;;;5.70;99.90;;;;;;6054814;23;20027;-77
2024/02/05 06:05:05;;;;;;;1.60;1.27;;;5.70;99.90;;;;;;6033681;23;20054;-78
2024/02/05 06:07:57;;;;;;;5.05;1.27;;;5.70;99.90;;;;;;6052593;23;20534;-77
2024/02/05 06:10:45;;;;;;;1.48;1.20;;;5.70;99.90;;;;;;6032402;23;20366;-78
2024/02/05 06:13:32;;;;;;;2.05;0.98;;;5.70;99.90;;;;;;6030637;23;20105;-78
2024/02/05 06:16:21;;;;;;;1.30;1.20;;;5.80;99.90;;;;;;6052606;23;20027;-78
2024/02/05 06:19:09;;;;;;;2.60;1.27;;;5.80;99.90;;;;;;6032065;23;20029;-78
2024/02/05 06:21:59;;;;;;;1.55;1.20;;;5.80;99.90;;;;;;6039458;23;20047;-76
2024/02/05 06:24:46;;;;;;;1.65;1.38;;;5.80;99.90;;;;;;6051589;23;20085;-78
2024/02/05 06:27:34;;;;;;;1.30;1.20;;;5.80;99.90;;;;;;6053361;23;20780;-77
2024/02/05 06:30:22;;;;;;;3.10;1.20;;;5.80;99.90;;;;;;6047934;23;20027;-78
2024/02/05 06:33:10;;;;;;;1.55;1.30;;;5.80;99.90;;;;;;6046597;23;20027;-78
2024/02/05 06:35:58;;;;;;;4.85;1.48;;;5.70;99.90;;;;;;6060398;23;20019;-78
2024/02/05 06:38:46;;;;;;;2.20;1.83;;;5.80;99.90;;;;;;6053093;23;20031;-79
2024/02/05 06:41:34;;;;;;;2.25;1.58;;;5.80;99.90;;;;;;6055930;23;20406;-77
2024/02/05 06:44:26;;;;;;;1.48;1.38;;;5.70;99.90;;;;;;6057596;23;20033;-80
2024/02/05 06:47:20;;;;;;;2.58;1.60;;;5.70;99.90;;;;;;6053737;23;20457;-79
2024/02/05 06:50:10;;;;;;;2.80;1.63;;;5.70;99.90;;;;;;6038841;23;20110;-80
2024/02/05 06:53:02;;;;;;;1.40;1.30;;;5.70;99.90;;;;;;6040677;23;20062;-82
2024/02/05 06:55:50;;;;;;;1.65;1.30;;;5.60;99.90;;;;;;6059071;23;20039;-78
2024/02/05 06:58:38;;;;;;;2.17;1.55;;;5.60;99.90;;;;;;6055661;23;20030;-77
2024/02/05 07:01:29;;;;;;;1.20;1.10;;;5.60;99.90;;;;;;6062336;23;20031;-78
2024/02/05 07:04:16;;;;;;;1.30;1.00;;;5.50;99.90;;;;;;6076511;23;20023;-77
2024/02/05 07:07:04;;;;;;;1.70;1.20;;;5.50;99.90;;;;;;6072224;23;20034;-78
2024/02/05 07:09:54;;;;;;;3.33;2.15;;;5.50;99.90;;;;;;6053336;23;20322;-78
2024/02/05 07:12:41;;;;;;;7.43;3.55;;;5.50;99.90;;;;;;6030322;23;20034;-76
2024/02/05 07:15:34;;;;;;;6.10;2.03;;;5.50;99.90;;;;;;6060222;23;20347;-77
2024/02/05 07:18:22;;;;;;;3.42;2.50;;;5.40;99.90;;;;;;6028529;23;20026;-76
2024/02/05 07:21:10;;;;;;;2.25;1.90;;;5.40;99.90;;;;;;6066265;23;20023;-76
2024/02/05 07:23:58;;;;;;;3.22;2.47;;;5.40;99.90;;;;;;6051730;23;20107;-79
2024/02/05 07:26:48;;;;;;;4.75;2.50;;;5.40;99.90;;;;;;6058901;23;20090;-79
2024/02/05 07:29:39;;;;;;;2.13;1.90;;;5.40;99.90;;;;;;6057818;23;20041;-77
2024/02/05 07:32:27;;;;;;;1.90;1.63;;;5.50;99.90;;;;;;6038487;23;20636;-78
2024/02/05 07:35:15;;;;;;;1.55;1.45;;;5.60;99.90;;;;;;6058191;23;20030;-79
2024/02/05 07:38:03;;;;;;;2.78;1.70;;;5.50;99.90;;;;;;6057607;23;20027;-79
2024/02/05 07:40:50;;;;;;;1.80;1.70;;;5.60;99.90;;;;;;6056623;23;20430;-78
2024/02/05 07:43:41;;;;;;;3.40;1.70;;;5.70;99.90;;;;;;6072508;23;20560;-78
2024/02/05 07:46:29;;;;;;;3.92;1.80;;;5.70;99.90;;;;;;6059337;23;20466;-78
2024/02/05 07:49:17;;;;;;;2.35;1.67;;;5.80;99.90;;;;;;6066513;23;20090;-81
2024/02/05 07:52:05;;;;;;;4.75;1.70;;;5.90;99.90;;;;;;6074908;23;20037;-77
2024/02/05 07:54:53;;;;;;;3.42;1.77;;;5.90;99.90;;;;;;6054896;23;20027;-78
2024/02/05 07:57:42;;;;;;;2.15;1.67;;;6.00;99.90;;;;;;6055383;23;20027;-78
2024/02/05 08:00:29;;;;;;;2.42;1.40;;;6.00;99.90;;;;;;6064213;23;20258;-77
2024/02/05 08:03:20;;;;;;;1.98;1.52;;;5.90;99.90;;;;;;6049876;23;20082;-79
2024/02/05 08:06:18;;;;;;;5.07;1.70;;;5.90;99.90;;;;;;6080313;23;20034;-79
2024/02/05 08:09:10;;;;;;;2.53;1.30;;;5.90;99.90;;;;;;6075267;23;20058;-79
2024/02/05 08:11:58;;;;;;;3.22;1.70;;;5.90;99.90;;;;;;6040618;23;20019;-79
2024/02/05 08:14:46;;;;;;;3.13;1.63;;;5.90;99.90;;;;;;6040783;23;20353;-79
2024/02/05 08:17:36;;;;;;;1.40;1.17;;;5.90;99.90;;;;;;6043265;23;20410;-80
2024/02/05 08:20:26;;;;;;;2.72;1.27;;;6.00;99.90;;;;;;6044284;23;20112;-83
2024/02/05 08:23:25;;;;;;;1.27;1.17;;;6.10;99.90;;;;;;6059029;23;20027;-81
2024/02/05 08:26:13;;;;;;;2.15;1.63;;;6.30;99.90;;;;;;6058699;23;20034;-77
2024/02/05 08:29:03;;;;;;;3.80;1.38;;;6.50;99.90;;;;;;6056512;23;20029;-78
2024/02/05 08:32:01;;;;;;;1.77;1.25;;;6.60;99.90;;;;;;6043214;23;20046;-78
2024/02/05 08:34:50;;;;;;;3.60;1.10;;;6.70;99.90;;;;;;6043202;23;20035;-79
2024/02/05 08:37:39;;;;;;;3.13;1.30;;;6.90;99.90;;;;;;6060296;23;20034;-79
2024/02/05 08:40:27;;;;;;;1.08;0.90;;;7.00;99.90;;;;;;6056348;23;20454;-80
2024/02/05 08:43:14;;;;;;;5.78;1.30;;;7.00;99.90;;;;;;6059733;23;20490;-77
2024/02/05 08:46:03;;;;;;;4.47;1.73;;;7.00;99.90;;;;;;6055939;23;20022;-79
2024/02/05 08:48:50;;;;;;;1.88;1.13;;;6.90;99.90;;;;;;6043877;23;20030;-79
2024/02/05 08:51:39;;;;;;;1.63;1.50;;;6.80;99.90;;;;;;6069599;23;20442;-78
2024/02/05 08:54:29;;;;;;;1.83;1.13;;;6.70;99.90;;;;;;6064237;23;20095;-79
2024/02/05 08:57:17;;;;;;;4.07;1.65;;;6.80;99.90;;;;;;6053648;23;20034;-77
2024/02/05 09:00:09;;;;;;;1.33;1.20;;;7.30;99.90;;;;;;6051190;23;20033;-80
2024/02/05 09:02:57;;;;;;;3.72;1.40;;;7.70;99.90;;;;;;6045963;23;20082;-79
2024/02/05 09:05:51;;;;;;;4.20;1.30;;;8.00;99.90;;;;;;6061291;23;20027;-82
2024/02/05 09:08:39;;;;;;;3.13;1.40;;;8.30;99.90;;;;;;6061018;23;20023;-78
2024/02/05 09:11:31;;;;;;;4.53;1.55;;;8.30;99.90;;;;;;6059478;23;20039;-79
2024/02/05 09:14:22;;;;;;;2.35;1.00;;;8.70;99.90;;;;;;6060996;23;20170;-79
2024/02/05 09:17:12;;;;;;;2.72;1.60;;;8.90;99.90;;;;;;6057371;23;20429;-77
2024/02/05 09:20:01;;;;;;;1.33;1.23;;;8.50;99.90;;;;;;6055068;23;20438;-78
2024/02/05 09:22:53;;;;;;;;;;;8.60;99.90;;;;;;6054898;23;20031;-80
2024/02/05 09:25:46;;;;;;;1.30;1.00;;;8.70;99.90;;;;;;6061388;23;20359;-78
2024/02/05 09:28:35;;;;;;;7.03;1.50;;;9.00;99.90;;;;;;6061944;23;20031;-79
2024/02/05 09:31:23;;;;;;;2.75;1.13;;;9.00;99.90;;;;;;6064608;23;20086;-78
2024/02/05 09:34:13;;;;;;;1.65;1.10;;;9.20;99.90;;;;;;6051765;23;20083;-79
2024/02/05 09:37:03;;;;;;;1.90;1.20;;;9.00;99.90;;;;;;6064740;23;20038;-78
2024/02/05 09:39:52;;;;;;;7.32;2.97;;;9.40;99.90;;;;;;6038813;23;20037;-79
2024/02/05 09:42:43;;;;;;;4.95;1.90;;;9.80;99.90;;;;;;6044665;23;20086;-80
2024/02/05 09:45:35;;;;;;;2.47;1.13;;;10.30;99.90;;;;;;6070320;23;20041;-79
2024/02/05 09:48:26;;;;;;;3.25;1.33;;;10.20;99.90;;;;;;6068493;23;20037;-79
2024/02/05 09:51:29;;;;;;;8.90;0.80;;;10.50;99.90;;;;;;6054867;23;20605;-80
2024/02/05 09:54:19;;;;;;;3.00;1.25;;;10.70;99.90;;;;;;6053840;23;20031;-79
2024/02/05 09:57:10;;;;;;;;;;;11.00;99.90;;;;;;6086481;23;20346;-77
2024/02/05 09:59:59;;;;;;;2.13;1.25;;;11.20;99.90;;;;;;6088792;23;19957;-78
2024/02/05 10:02:51;;;;;;;2.72;1.02;;;11.50;99.90;;;;;;6057273;23;20050;-77
2024/02/05 10:05:39;;;;;;;1.08;0.85;;;11.10;99.90;;;;;;6066053;23;20091;-79
2024/02/05 10:08:31;;;;;;;0.95;0.88;;;10.90;99.90;;;;;;6066443;23;20030;-79
2024/02/05 10:11:24;;;;;;;2.83;1.30;;;11.40;99.90;;;;;;6064043;23;20605;-78
2024/02/05 10:14:16;;;;;;;3.88;1.05;;;11.20;99.90;;;;;;6042860;23;20030;-79
2024/02/05 10:17:05;;;;;;;4.05;1.38;;;11.60;99.90;;;;;;6060338;23;20095;-78
2024/02/05 10:20:01;;;;;;;3.67;1.05;;;11.20;99.90;;;;;;6079054;23;20033;-78
2024/02/05 10:22:49;;;;;;;2.03;1.20;;;11.40;99.90;;;;;;6076986;23;20078;-78
2024/02/05 10:25:38;;;;;;;2.30;0.90;;;11.90;99.90;;;;;;6058933;23;20031;-77
2024/02/05 10:28:31;;;;;;;8.35;1.30;;;12.20;99.90;;;;;;6057907;23;20101;-78
2024/02/05 10:31:19;;;;;;;3.30;1.42;;;12.00;99.90;;;;;;6059121;23;20060;-78
2024/02/05 10:34:07;;;;;;;3.53;1.00;;;11.70;99.90;;;;;;6065031;23;20041;-78
2024/02/05 10:37:10;;;;;;;1.98;1.10;;;11.40;99.90;;;;;;6038919;23;20109;-80
2024/02/05 10:40:09;;;;;;;1.83;1.27;;;11.40;99.90;;;;;;6061413;23;20026;-81
2024/02/05 10:42:57;;;;;;;1.30;0.85;;;12.00;99.90;;;;;;6072258;23;20079;-81
2024/02/05 10:45:51;;;;;;;3.53;0.82;;;12.70;99.90;;;;;;6032992;23;20022;-78
2024/02/05 10:48:45;;;;;;;5.40;1.30;;;12.30;99.90;;;;;;6074166;23;20042;-79
2024/02/05 10:51:41;;;;;;;1.50;1.10;;;12.00;99.90;;;;;;6073843;23;20075;-79
2024/02/05 10:54:34;;;;;;;4.50;1.30;;;11.80;99.90;;;;;;6072257;23;20027;-77
2024/02/05 10:57:23;;;;;;;1.95;1.40;;;12.00;99.90;;;;;;6052951;23;20067;-78
2024/02/05 11:00:12;;;;;;;3.47;1.08;;;12.00;99.90;;;;;;6070754;23;20086;-79
2024/02/05 11:03:12;;;;;;;2.53;1.10;;;11.60;99.90;;;;;;6073808;23;20086;-79
2024/02/05 11:06:04;;;;;;;4.40;1.70;;;12.10;99.90;;;;;;6076346;23;20029;-78
2024/02/05 11:09:04;;;;;;;2.42;1.10;;;12.20;99.90;;;;;;6060483;23;20026;-77
2024/02/05 11:11:59;;;;;;;3.13;1.20;;;12.10;99.90;;;;;;6059627;23;20011;-75
2024/02/05 11:14:50;;;;;;;3.47;1.30;;;12.00;99.90;;;;;;6086820;23;20027;-76
2024/02/05 11:17:39;;;;;;;2.50;1.05;;;11.90;99.90;;;;;;6077999;23;20015;-77
2024/02/05 11:20:28;;;;;;;3.13;0.90;;;12.40;99.90;;;;;;6077889;23;20202;-79
2024/02/05 11:23:20;;;;;;;8.05;3.92;;;13.20;99.90;;;;;;6055717;23;20021;-79
2024/02/05 11:26:07;;;;;;;6.47;3.28;;;12.90;99.90;;;;;;6076567;23;20048;-78
2024/02/05 11:29:00;;;;;;;4.22;1.50;;;13.10;99.90;;;;;;6056534;23;20050;-79
2024/02/05 11:31:49;;;;;;;1.77;0.93;;;13.40;99.90;;;;;;6078509;23;20030;-81
2024/02/05 11:34:49;;;;;;;4.57;1.15;;;13.50;99.90;;;;;;6071240;23;20023;-78
2024/02/05 11:37:39;;;;;;;3.28;1.02;;;13.80;99.90;;;;;;6059156;23;20034;-80
2024/02/05 11:40:31;;;;;;;3.50;0.95;;;13.60;99.90;;;;;;6056500;23;20090;-79
2024/02/05 11:43:28;;;;;;;5.00;1.00;;;13.70;99.90;;;;;;6055763;23;20081;-81
2024/02/05 11:46:17;;;;;;;7.60;1.55;;;12.90;99.90;;;;;;6064269;23;20439;-80
2024/02/05 11:49:05;;;;;;;3.67;1.20;;;12.80;99.90;;;;;;6072124;23;20076;-77
2024/02/05 11:51:53;;;;;;;5.75;1.80;;;13.10;99.90;;;;;;6072311;23;20038;-80
2024/02/05 11:54:44;;;;;;;4.80;1.38;;;13.60;99.90;;;;;;6052450;23;20037;-80
2024/02/05 11:57:31;;;;;;;3.70;1.27;;;14.30;99.90;;;;;;6060205;23;20023;-79
2024/02/05 12:00:19;;;;;;;4.43;1.27;;;15.00;99.90;;;;;;6071640;23;20125;-78
2024/02/05 12:03:14;;;;;;;5.68;1.95;;;14.70;99.90;;;;;;6044187;23;20063;-79
2024/02/05 12:06:14;;;;;;;3.88;1.10;;;14.90;99.90;;;;;;6055625;23;20170;-79
2024/02/05 12:09:20;;;;;;;3.08;1.15;;;15.30;99.20;;;;;;6054002;23;20067;-79
2024/02/05 12:12:12;;;;;;;3.38;1.27;;;14.40;89.70;;;;;;6070231;23;20087;-77
2024/02/05 12:15:16;;;;;;;2.20;0.98;;;13.50;93.50;;;;;;6070797;23;20030;-77
2024/02/05 12:18:06;;;;;;;4.18;1.52;;;14.20;96.00;;;;;;6068738;23;20033;-77
2024/02/05 12:20:58;;;;;;;3.70;1.42;;;13.30;98.20;;;;;;6056234;23;20508;-77
2024/02/05 12:23:46;;;;;;;4.90;1.38;;;12.80;99.30;;;;;;6061100;23;20027;-78
2024/02/05 12:26:42;;;;;;;1.95;1.40;;;12.50;99.90;;;;;;6061450;23;20042;-79
2024/02/05 12:29:30;;;;;;;4.22;1.52;;;12.80;99.90;;;;;;6061139;23;20034;-80
2024/02/05 12:32:17;;;;;;;2.85;1.35;;;13.60;99.90;;;;;;6038037;23;20039;-81
2024/02/05 12:35:35;;;;;;;4.97;1.38;;;14.80;99.90;;;;;;6039388;23;20039;-79
2024/02/05 12:38:23;;;;;;;3.88;1.02;;;15.10;93.80;;;;;;6060548;23;20037;-79
2024/02/05 12:41:17;;;;;;;2.35;1.15;;;15.10;89.10;;;;;;6059227;23;20038;-79
2024/02/05 12:44:08;;;;;;;3.67;1.40;;;14.80;81.70;;;;;;6055349;23;20182;-78
2024/02/05 12:47:15;;;;;;;1.40;1.30;;;14.60;71.20;;;;;;6051712;23;20023;-79
2024/02/05 12:50:04;;;;;;;3.03;1.13;;;14.30;72.00;;;;;;6062175;23;20101;-78
2024/02/05 12:52:52;;;;;;;4.40;1.33;;;14.50;75.90;;;;;;6059878;23;20105;-78
2024/02/05 12:55:43;;;;;;;3.03;1.48;;;15.10;69.20;;;;;;6059890;23;20474;-79
2024/02/05 12:58:32;;;;;;;5.72;1.52;;;16.20;61.70;;;;;;6041249;23;20038;-80
2024/02/05 13:01:22;;;;;;;5.50;1.10;;;15.80;45.50;;;;;;6041747;23;20078;-79
2024/02/05 13:04:17;;;;;;;2.55;1.05;;;16.00;43.30;;;;;;6062308;23;20484;-80
2024/02/05 13:07:08;;;;;;;5.25;1.30;;;15.90;38.50;;;;;;6042510;23;20027;-78
2024/02/05 13:10:01;;;;;;;3.85;1.27;;;15.70;33.00;;;;;;6063377;23;20034;-77
2024/02/05 13:12:48;;;;;;;1.50;1.10;;;15.00;29.50;;;;;;6072842;23;20051;-79
2024/02/05 13:15:37;;;;;;;4.40;1.65;;;15.00;32.60;;;;;;6073543;23;20251;-79
2024/02/05 13:18:27;;;;;;;5.50;1.85;;;15.00;32.90;;;;;;6053674;23;20141;-78
2024/02/05 13:21:18;;;;;;;5.22;1.38;;;14.90;30.60;;;;;;6066270;23;20074;-77
2024/02/05 13:24:08;;;;;;;2.28;1.17;;;15.70;28.30;;;;;;6053375;23;20106;-81
2024/02/05 13:27:02;;;;;;;2.92;1.10;;;16.10;23.40;;;;;;6043831;23;20030;-80
2024/02/05 13:30:25;;;;;;;3.22;1.10;;;15.90;21.30;;;;;;6059951;23;20512;-82
2024/02/05 13:33:36;;;;;;;4.75;1.30;;;16.30;18.50;;;;;;6056651;23;20077;-79
2024/02/05 13:36:24;;;;;;;2.42;1.38;;;15.50;13.30;;;;;;6072393;23;20034;-77
2024/02/05 13:39:13;;;;;;;3.00;1.23;;;15.50;18.40;;;;;;6084523;23;20033;-79
2024/02/05 13:45:24;;;;;;;4.25;1.08;;;16.80;10.60;;;;;;6069544;23;20026;-81
2024/02/05 13:48:17;;;;;;;4.55;1.10;;;16.10;2.00;;;;;;6063631;23;20055;-81
2024/02/05 13:51:07;;;;;;;2.58;1.63;;;16.40;2.70;;;;;;6058634;23;20027;-79
2024/02/05 13:53:55;;;;;;;4.45;1.30;;;16.70;1.00;;;;;;6063060;23;20031;-79
2024/02/05 13:56:43;;;;;;;4.05;1.65;;;17.20;1.00;;;;;;6064052;23;20023;-79
2024/02/05 13:59:31;;;;;;;3.05;1.10;;;17.20;1.00;;;;;;6065542;23;20070;-78
2024/02/05 14:02:20;;;;;;;6.15;1.85;;;17.00;1.00;;;;;;6057343;23;20023;-79
2024/02/05 14:05:09;;;;;;;6.38;1.27;;;17.10;1.00;;;;;;6018977;23;20030;-80
2024/02/05 14:07:59;;;;;;;3.55;1.17;;;16.60;1.00;;;;;;6057144;23;20031;-79
2024/02/05 14:10:50;;;;;;;3.55;1.60;;;16.40;1.00;;;;;;6068209;23;20374;-80
2024/02/05 14:13:38;;;;;;;10.82;2.72;;;16.50;1.00;;;;;;6035051;23;20485;-78
2024/02/05 14:16:26;;;;;;;5.68;2.40;;;16.70;1.00;;;;;;6060384;23;20027;-77
2024/02/05 14:19:17;;;;;;;2.95;1.30;;;16.20;1.00;;;;;;6061250;23;20034;-79
2024/02/05 14:22:05;;;;;;;2.10;1.45;;;16.40;1.00;;;;;;6039996;23;20027;-78
2024/02/05 14:24:54;;;;;;;6.00;1.70;;;16.40;1.00;;;;;;6020593;23;20046;-78
2024/02/05 14:27:44;;;;;;;1.73;1.20;;;16.30;1.00;;;;;;6063252;23;20034;-77
2024/02/05 14:30:33;;;;;;;4.75;1.60;;;16.30;1.00;;;;;;6069002;23;20038;-78
2024/02/05 14:33:25;;;;;;;3.67;1.40;;;16.30;1.00;;;;;;6072801;23;20488;-80
2024/02/05 14:36:13;;;;;;;7.70;1.83;;;16.20;1.00;;;;;;6063032;23;20098;-77
2024/02/05 14:39:01;;;;;;;2.47;1.02;;;15.90;1.00;;;;;;6067564;23;20034;-80
2024/02/05 14:41:51;;;;;;;6.43;1.15;;;15.90;1.00;;;;;;6061161;23;20373;-80
2024/02/05 14:44:39;;;;;;;7.70;1.67;;;16.70;1.00;;;;;;6061409;23;20585;-81
2024/02/05 14:47:28;;;;;;;3.53;2.00;;;17.20;1.00;;;;;;6061197;23;20065;-79
2024/02/05 14:50:17;;;;;;;8.93;1.55;;;16.30;1.00;;;;;;6062570;23;20023;-81
2024/02/05 14:53:06;;;;;;;6.32;1.67;;;15.80;1.00;;;;;;6032021;23;20027;-78
2024/02/05 14:55:54;;;;;;;8.43;1.60;;;15.50;1.00;;;;;;6011956;23;20031;-80
2024/02/05 14:58:43;;;;;;;4.88;1.60;;;15.40;1.00;;;;;;6032931;23;20034;-81